Carlinville, Illinois
Current Conditions -  °F | °C
As of 10:35 PM on Tuesday 21 Oct 2014 (Local Time) from K3LF Reporting Station
Clear Clear  
Wind Chill: 42°   Ceiling: Unl
Heat Index: 47°   Visibility: 10mi
Dew Point: 39°   Wind: 9mph
Humidity: 75%   Direction: 70°ENE
Pressure: 30.22"   Gusts: NA
Location:  39.28°N, 89.88°W
Report Text: K3LF 220335Z AUTO 07008KT 10SM CLR 08/04 A3022 RMK AO2 T00820040
Loading
Personal Weather Stations






























Interactive Weather Map
Tropical Storm Tracking
New forecast layout! Learn more

10-Day Weather Forecast

Advertisements
Track Severe Weather on mobile